SKUC/AUC METAR and TAF weather

Enter ICAO airport designator
Station Type Date Time Source
SKUC METAR 2019/02/21 11:00 UTC NOAA

SKUC 211100Z 00000KT 9999 SCT023 23/19 A2990


Station Type Date Time Source
SKUC Decoded METAR 2019/02/21 11:00 UTC NOAA

Arauca / Santiago Perez, Colombia (SKUC) 07-04N 070-44W 128M
Feb 21, 2019 - 06:00 AM EST / 2019.02.21 1100 UTC
Wind: Calm:0
Visibility: greater than 7 mile(s):0
Sky conditions: partly cloudy
Temperature: 73 F (23 C)
Dew Point: 66 F (19 C)
Relative Humidity: 78%
Pressure (altimeter): 29.9 in. Hg (1012 hPa)
ob: SKUC 211100Z 00000KT 9999 SCT023 23/19 A2990
cycle: 11

Station Type Date Time Source
SKUC TAF UTC NOAA

Error!


Example: see airport list